Time;durP1;ratioP1;P1;durP2;ratioP2;P2;SDS_P1;SDS_P2;PMS_P1;PMS_P2;Temp;Humidity;BMP_temperature;BMP_pressure;BME280_temperature;BME280_humidity;BME280_pressure;Samples;Min_cycle;Max_cycle;Signal;HPM_P1;HPM_P2
2022/02/07 00:00:08;;;;;;;;;;;;;;;9.31;66.93;100736.41;5011156;27;102561;-49
2022/02/07 00:05:24;;;;;;;;;;;;;;;9.32;66.97;100732.59;5008563;28;102362;-50
2022/02/07 00:07:50;;;;;;;;;;;;;;;9.31;66.97;100732.88;5008446;27;102737;-50
2022/02/07 00:10:17;;;;;;;;;;;;;;;9.30;66.95;100723.88;5006844;27;102606;-50
2022/02/07 00:12:46;;;;;;;;;;;;;;;9.31;66.27;100730.97;5008650;27;103711;-50
2022/02/07 00:15:12;;;;;;;;;;;;;;;9.30;66.45;100726.59;5009357;28;102389;-50
2022/02/07 00:17:39;;;;;;;;;;;;;;;9.32;66.79;100721.72;5009273;28;103041;-50
2022/02/07 00:20:13;;;;;;;;;;;;;;;9.31;66.61;100720.09;5010905;28;102689;-49
2022/02/07 00:22:39;;;;;;;;;;;;;;;9.32;67.01;100699.19;5008406;27;104005;-49
2022/02/07 00:25:07;;;;;;;;;;;;;;;9.29;66.82;100681.50;5008313;27;102540;-50
2022/02/07 00:27:36;;;;;;;;;;;;;;;9.30;66.85;100675.00;5007830;27;102240;-50
2022/02/07 00:30:02;;;;;;;;;;;;;;;9.31;66.88;100675.84;5007781;27;102760;-50
2022/02/07 00:32:28;;;;;;;;;;;;;;;9.31;66.56;100675.84;5008102;28;104330;-50
2022/02/07 00:34:55;;;;;;;;;;;;;;;9.31;67.17;100670.41;5008933;27;102703;-50
2022/02/07 00:37:23;;;;;;;;;;;;;;;9.30;67.07;100677.69;5005505;28;102480;-51
2022/02/07 00:40:01;;;;;;;;;;;;;;;9.30;66.85;100664.13;5008672;28;102923;-50
2022/02/07 00:42:32;;;;;;;;;;;;;;;9.31;66.93;100664.97;5006897;28;103886;-49
2022/02/07 00:45:14;;;;;;;;;;;;;;;9.31;67.25;100664.97;5009036;28;102765;-50
2022/02/07 00:47:40;;;;;;;;;;;;;;;9.31;67.03;100662.25;4997739;27;102595;-49
2022/02/07 00:50:06;;;;;;;;;;;;;;;9.30;66.94;100650.53;5006892;28;102766;-49
2022/02/07 00:52:32;;;;;;;;;;;;;;;9.31;67.03;100643.25;5008563;28;103876;-50
2022/02/07 00:54:58;;;;;;;;;;;;;;;9.30;67.33;100626.09;5007350;28;102708;-49
2022/02/07 00:57:24;;;;;;;;;;;;;;;9.31;66.67;100621.50;5009246;27;102287;-49
2022/02/07 00:59:50;;;;;;;;;;;;;;;9.30;66.63;100619.84;5007043;28;102604;-49
2022/02/07 01:02:18;;;;;;;;;;;;;;;9.30;67.37;100615.25;5009095;27;103880;-50
2022/02/07 01:04:43;;;;;;;;;;;;;;;9.30;67.12;100609.81;5008210;27;102482;-50
2022/02/07 01:07:10;;;;;;;;;;;;;;;9.30;67.26;100604.38;5009497;27;102157;-50
2022/02/07 01:09:51;;;;;;;;;;;;;;;9.30;66.79;100598.94;5003502;27;102739;-49
2022/02/07 01:15:10;;;;;;;;;;;;;;;9.31;67.08;100608.75;5003312;28;102479;-49
2022/02/07 01:53:03;;;;;;;;;;;;;;;9.30;67.34;100522.91;5009649;27;102712;-49
2022/02/07 01:57:55;;;;;;;;;;;;;;;9.29;66.94;100521.28;5004424;28;102522;-50
2022/02/07 02:00:22;;;;;;;;;;;;;;;9.30;66.58;100517.47;5001242;27;102102;-49
2022/02/07 02:02:48;;;;;;;;;;;;;;;9.30;67.43;100514.75;5012409;27;102630;-50
2022/02/07 02:05:16;;;;;;;;;;;;;;;9.30;66.93;100520.19;5006824;28;103440;-50
2022/02/07 02:07:43;;;;;;;;;;;;;;;9.30;67.18;100522.91;5007630;27;102316;-50
2022/02/07 02:10:10;;;;;;;;;;;;;;;9.30;67.18;100533.78;5007231;28;102063;-50
2022/02/07 02:12:45;;;;;;;;;;;;;;;9.30;66.75;100522.09;5006539;28;102248;-50
2022/02/07 02:37:09;;;;;;;;;;;;;;;9.30;66.67;100456.91;5005701;28;103963;-50
2022/02/07 02:48:16;;;;;;;;;;;;;;;9.28;66.59;100411.03;4987517;28;105034;-50
2022/02/07 02:50:43;;;;;;;;;;;;;;;9.29;66.71;100390.94;5006437;27;102584;-50
2022/02/07 02:53:10;;;;;;;;;;;;;;;9.28;67.38;100383.88;5008062;27;102657;-50
2022/02/07 02:55:39;;;;;;;;;;;;;;;9.28;67.04;100386.59;5008755;27;102242;-49
2022/02/07 02:58:06;;;;;;;;;;;;;;;9.28;67.36;100373.03;5008633;27;103925;-49
2022/02/07 03:00:33;;;;;;;;;;;;;;;9.27;66.89;100384.97;4999623;27;102419;-50
2022/02/07 03:03:02;;;;;;;;;;;;;;;9.28;67.12;100367.59;5009011;27;102468;-50
2022/02/07 03:05:29;;;;;;;;;;;;;;;9.28;66.62;100383.88;5008443;27;102487;-49
2022/02/07 03:07:56;;;;;;;;;;;;;;;9.28;66.93;100399.38;4996688;28;103948;-50
2022/02/07 03:10:55;;;;;;;;;;;;;;;9.27;67.09;100390.41;5009992;28;102591;-49
2022/02/07 03:13:17;;;;;;;;;;;;;;;9.29;67.22;100403.69;5008284;28;102648;-49
2022/02/07 03:18:30;;;;;;;;;;;;;;;9.28;66.75;100383.88;5004204;27;104148;-49
2022/02/07 03:20:57;;;;;;;;;;;;;;;9.28;67.00;100388.50;5006451;27;102358;-50
2022/02/07 03:23:23;;;;;;;;;;;;;;;9.28;66.71;100394.75;5005110;28;102377;-49
2022/02/07 03:25:50;;;;;;;;;;;;;;;9.27;66.96;100395.84;5007241;27;102620;-50
2022/02/07 03:28:18;;;;;;;;;;;;;;;9.27;67.37;100393.13;5003714;27;103845;-50
2022/02/07 03:30:44;;;;;;;;;;;;;;;9.28;67.23;100383.06;5002576;27;102641;-50
2022/02/07 03:33:10;;;;;;;;;;;;;;;9.28;67.32;100377.66;5006184;27;102700;-50
2022/02/07 03:35:37;;;;;;;;;;;;;;;9.27;66.87;100365.97;5010505;28;102715;-49
2022/02/07 03:38:04;;;;;;;;;;;;;;;9.27;67.35;100371.41;5009742;27;103845;-50
2022/02/07 03:40:29;;;;;;;;;;;;;;;9.28;67.08;100374.94;5008415;27;102779;-50
2022/02/07 03:42:56;;;;;;;;;;;;;;;9.28;66.83;100374.94;5003970;27;102024;-51
2022/02/07 03:45:23;;;;;;;;;;;;;;;9.28;66.97;100373.03;5010995;28;102477;-50
2022/02/07 03:47:50;;;;;;;;;;;;;;;9.27;67.40;100363.25;5000645;28;104186;-51
2022/02/07 03:50:16;;;;;;;;;;;;;;;9.27;67.11;100363.25;5011857;28;102116;-49
2022/02/07 03:52:42;;;;;;;;;;;;;;;9.28;67.04;100354.00;5007990;27;102802;-49
2022/02/07 03:55:08;;;;;;;;;;;;;;;9.29;66.64;100343.97;5011424;28;102274;-49
2022/02/07 03:57:35;;;;;;;;;;;;;;;9.27;66.65;100344.25;5012362;28;104143;-50
2022/02/07 04:00:05;;;;;;;;;;;;;;;9.28;67.40;100328.75;5012133;28;103108;-50
2022/02/07 04:02:33;;;;;;;;;;;;;;;9.28;66.64;100326.84;5011755;27;102600;-49
2022/02/07 04:05:21;;;;;;;;;;;;;;;9.28;67.19;100321.44;5011473;27;102417;-50
2022/02/07 04:07:45;;;;;;;;;;;;;;;9.28;66.68;100335.00;5000135;27;104028;-50
2022/02/07 04:10:11;;;;;;;;;;;;;;;9.28;66.84;100323.34;5008623;28;102315;-50
2022/02/07 04:12:40;;;;;;;;;;;;;;;9.28;66.87;100328.75;5009270;28;102521;-49
2022/02/07 04:15:13;;;;;;;;;;;;;;;9.28;66.83;100316.00;5009609;28;103893;-50
2022/02/07 04:17:45;;;;;;;;;;;;;;;9.28;66.67;100305.13;5007741;27;102992;-49
2022/02/07 04:20:11;;;;;;;;;;;;;;;9.28;67.12;100302.41;5010652;28;102531;-50
2022/02/07 04:22:37;;;;;;;;;;;;;;;9.27;66.66;100295.38;5006836;28;102570;-50
2022/02/07 04:25:04;;;;;;;;;;;;;;;9.29;67.34;100297.81;5010637;28;102843;-50
2022/02/07 04:27:31;;;;;;;;;;;;;;;9.29;66.69;100297.81;4999883;28;104233;-49
2022/02/07 04:29:56;;;;;;;;;;;;;;;9.28;66.72;100294.28;5009813;28;102602;-50
2022/02/07 04:32:22;;;;;;;;;;;;;;;9.28;66.62;100288.84;5002936;28;102062;-50
2022/02/07 04:34:50;;;;;;;;;;;;;;;9.28;66.93;100286.13;5010384;27;102479;-49
2022/02/07 04:37:17;;;;;;;;;;;;;;;9.29;67.73;100281.50;5008614;27;104029;-50
2022/02/07 04:39:43;;;;;;;;;;;;;;;9.30;66.49;100274.97;5007263;28;102610;-51
2022/02/07 04:42:11;;;;;;;;;;;;;;;9.29;67.15;100259.78;5007225;28;102590;-49
2022/02/07 04:45:04;;;;;;;;;;;;;;;9.28;67.34;100258.97;5010401;28;103038;-49
2022/02/07 04:58:02;;;;;;;;;;;;;;;9.28;66.84;100253.53;4995740;27;103388;-50
2022/02/07 05:03:20;;;;;;;;;;;;;;;9.29;67.42;100255.16;5002864;27;102827;-50
2022/02/07 05:16:18;;;;;;;;;;;;;;;9.29;67.08;100247.00;5001783;28;102622;-50
2022/02/07 05:18:44;;;;;;;;;;;;;;;9.29;67.17;100233.44;5001369;28;103879;-51
2022/02/07 05:21:12;;;;;;;;;;;;;;;9.28;67.05;100234.53;5000900;28;102684;-50
2022/02/07 05:23:38;;;;;;;;;;;;;;;9.27;67.07;100227.50;5003455;28;102351;-51
2022/02/07 05:26:04;;;;;;;;;;;;;;;9.27;66.91;100213.91;5007340;28;102212;-50
2022/02/07 05:28:30;;;;;;;;;;;;;;;9.27;67.10;100219.34;4998202;27;103990;-50
2022/02/07 05:30:56;;;;;;;;;;;;;;;9.27;66.95;100224.78;5001739;27;105482;-49
2022/02/07 05:33:22;;;;;;;;;;;;;;;9.27;66.52;100230.19;5004019;28;102868;-50
2022/02/07 05:35:48;;;;;;;;;;;;;;;9.26;67.38;100228.56;5008506;28;102248;-50
2022/02/07 05:38:15;;;;;;;;;;;;;;;9.27;67.39;100226.69;5012270;28;103922;-50
2022/02/07 05:40:51;;;;;;;;;;;;;;;9.27;67.39;100232.91;4997311;28;102600;-50
2022/02/07 05:43:18;;;;;;;;;;;;;;;9.27;67.01;100234.81;5005207;27;102461;-50
2022/02/07 05:45:44;;;;;;;;;;;;;;;9.27;66.82;100235.63;5007586;28;102608;-50
2022/02/07 05:48:10;;;;;;;;;;;;;;;9.28;66.68;100231.00;5007714;28;104004;-50
2022/02/07 05:50:36;;;;;;;;;;;;;;;9.27;67.47;100230.19;5005127;27;102071;-49
2022/02/07 05:53:02;;;;;;;;;;;;;;;9.27;66.68;100235.63;5005729;27;102431;-50
2022/02/07 05:55:30;;;;;;;;;;;;;;;9.27;67.38;100224.78;5008488;27;102407;-50
2022/02/07 05:57:56;;;;;;;;;;;;;;;9.28;66.63;100220.97;5004794;28;104050;-50
2022/02/07 06:00:22;;;;;;;;;;;;;;;9.27;66.84;100223.97;5005885;27;102535;-50
2022/02/07 06:02:48;;;;;;;;;;;;;;;9.27;66.62;100213.91;5005101;27;102940;-50
2022/02/07 06:05:14;;;;;;;;;;;;;;;9.28;67.32;100209.28;5005559;28;102779;-50
2022/02/07 06:07:40;;;;;;;;;;;;;;;9.28;66.67;100210.09;5003886;28;103885;-50
2022/02/07 06:10:07;;;;;;;;;;;;;;;9.27;67.28;100205.75;5007735;28;102464;-49
2022/02/07 06:12:37;;;;;;;;;;;;;;;9.28;66.64;100215.53;5005328;27;102193;-50
2022/02/07 06:15:03;;;;;;;;;;;;;;;9.28;67.06;100203.84;4996180;28;102268;-49
2022/02/07 06:17:30;;;;;;;;;;;;;;;9.28;67.15;100199.25;5007452;28;103627;-49
2022/02/07 06:19:58;;;;;;;;;;;;;;;9.28;66.85;100182.94;5005569;27;101995;-49
2022/02/07 06:22:28;;;;;;;;;;;;;;;9.28;66.79;100182.94;5009364;27;102515;-49
2022/02/07 06:24:54;;;;;;;;;;;;;;;9.28;67.07;100174.81;5012073;28;103273;-49
2022/02/07 06:27:20;;;;;;;;;;;;;;;9.28;67.06;100172.09;5006075;28;103897;-50
2022/02/07 06:29:48;;;;;;;;;;;;;;;9.27;67.24;100170.47;4996750;28;102790;-50
2022/02/07 06:32:14;;;;;;;;;;;;;;;9.26;67.13;100168.81;5004326;27;102191;-50
2022/02/07 06:34:40;;;;;;;;;;;;;;;9.28;66.87;100161.22;5006639;27;102797;-50
2022/02/07 06:37:06;;;;;;;;;;;;;;;9.27;67.24;100159.59;5009584;27;104041;-50
2022/02/07 06:39:32;;;;;;;;;;;;;;;9.28;66.63;100158.50;5005521;28;102296;-50
2022/02/07 06:41:59;;;;;;;;;;;;;;;9.28;67.44;100153.06;5010703;28;102149;-50
2022/02/07 06:44:26;;;;;;;;;;;;;;;9.27;67.04;100142.50;5007936;27;102601;-49
2022/02/07 06:46:54;;;;;;;;;;;;;;;9.27;66.57;100159.59;5005811;27;103898;-50
2022/02/07 06:49:20;;;;;;;;;;;;;;;9.28;66.49;100161.22;5010322;27;105664;-51
2022/02/07 06:51:46;;;;;;;;;;;;;;;9.27;66.62;100164.22;5007935;27;102636;-49
2022/02/07 06:54:12;;;;;;;;;;;;;;;9.27;66.85;100164.22;5005759;27;102509;-50
2022/02/07 06:56:40;;;;;;;;;;;;;;;9.27;67.12;100154.19;4999916;27;103885;-50
2022/02/07 06:59:06;;;;;;;;;;;;;;;9.28;66.91;100165.84;4998381;28;102479;-50
2022/02/07 07:01:32;;;;;;;;;;;;;;;9.28;67.27;100160.41;4998401;27;102683;-51
2022/02/07 07:04:00;;;;;;;;;;;;;;;9.28;66.80;100157.69;4995408;28;102440;-50
2022/02/07 07:06:26;;;;;;;;;;;;;;;9.28;67.00;100149.56;5006184;27;103878;-51
2022/02/07 07:08:54;;;;;;;;;;;;;;;9.29;67.14;100141.13;5009619;28;102777;-52
2022/02/07 07:11:25;;;;;;;;;;;;;;;9.29;66.58;100141.13;5001556;27;102819;-50
2022/02/07 07:13:58;;;;;;;;;;;;;;;9.29;67.32;100134.88;5009397;28;103676;-50
2022/02/07 07:19:01;;;;;;;;;;;;;;;9.29;66.94;100130.25;5007063;28;102309;-51
2022/02/07 07:21:27;;;;;;;;;;;;;;;9.29;66.95;100132.97;4998501;28;105400;-50
2022/02/07 07:23:53;;;;;;;;;;;;;;;9.29;66.66;100141.13;5009208;28;102477;-54
2022/02/07 07:26:20;;;;;;;;;;;;;;;9.30;67.14;100140.03;5003210;27;104124;-49
2022/02/07 07:28:47;;;;;;;;;;;;;;;9.30;67.03;100129.16;5001292;28;102596;-49
2022/02/07 07:31:14;;;;;;;;;;;;;;;9.30;66.94;100142.72;5003695;27;102871;-49
2022/02/07 07:33:43;;;;;;;;;;;;;;;9.31;67.12;100147.09;5001895;27;102220;-49
2022/02/07 07:36:10;;;;;;;;;;;;;;;9.31;66.77;100141.66;5008871;28;104103;-50
2022/02/07 07:38:37;;;;;;;;;;;;;;;9.31;66.74;100136.22;5010157;27;103898;-50
2022/02/07 07:41:03;;;;;;;;;;;;;;;9.31;67.34;100140.84;5008347;28;102832;-49
2022/02/07 07:43:31;;;;;;;;;;;;;;;9.32;66.65;100143.28;5005907;27;102440;-49
2022/02/07 07:46:11;;;;;;;;;;;;;;;9.31;66.97;100133.53;5002404;27;104147;-49
2022/02/07 07:48:41;;;;;;;;;;;;;;;9.32;67.11;100142.47;5008205;27;102461;-49
2022/02/07 07:51:21;;;;;;;;;;;;;;;9.32;67.39;100128.91;5004875;27;102580;-49
2022/02/07 07:54:13;;;;;;;;;;;;;;;9.31;66.82;100111.78;5007782;27;102759;-50
2022/02/07 08:02:10;;;;;;;;;;;;;;;9.32;67.19;100112.59;5005215;28;102518;-51
2022/02/07 08:04:38;;;;;;;;;;;;;;;9.32;67.16;100118.84;5013044;27;102226;-49
2022/02/07 08:07:15;;;;;;;;;;;;;;;9.32;67.38;100113.41;5001499;28;103845;-49
2022/02/07 08:12:16;;;;;;;;;;;;;;;9.33;66.57;100101.44;4999161;28;104072;-50
2022/02/07 08:14:42;;;;;;;;;;;;;;;9.31;67.38;100084.63;5000739;28;102344;-49
2022/02/07 08:17:08;;;;;;;;;;;;;;;9.33;67.41;100063.44;4997656;28;104161;-49
2022/02/07 08:19:34;;;;;;;;;;;;;;;9.32;67.36;100061.00;4999558;27;102384;-50
2022/02/07 08:22:00;;;;;;;;;;;;;;;9.33;66.63;100059.91;5002930;27;102248;-50
2022/02/07 08:24:27;;;;;;;;;;;;;;;9.32;67.09;100053.66;5004946;28;106175;-50
2022/02/07 08:26:55;;;;;;;;;;;;;;;9.32;66.69;100059.09;5000234;28;103839;-49
2022/02/07 08:29:21;;;;;;;;;;;;;;;9.32;66.60;100064.53;5011824;28;102493;-50
2022/02/07 08:31:47;;;;;;;;;;;;;;;9.32;67.22;100059.09;5008350;27;102330;-50
2022/02/07 08:34:14;;;;;;;;;;;;;;;9.32;67.32;100055.56;5006778;28;104998;-50
2022/02/07 08:36:41;;;;;;;;;;;;;;;9.32;66.82;100048.25;5003743;28;104029;-49
2022/02/07 08:39:07;;;;;;;;;;;;;;;9.33;67.19;100044.44;4999136;27;102387;-50
2022/02/07 08:41:35;;;;;;;;;;;;;;;9.33;67.00;100044.44;4995804;27;102227;-50
2022/02/07 08:44:02;;;;;;;;;;;;;;;9.32;66.84;100034.66;5007016;27;102672;-49
2022/02/07 08:46:28;;;;;;;;;;;;;;;9.33;66.60;100025.41;5003020;28;104069;-50
2022/02/07 08:48:54;;;;;;;;;;;;;;;9.34;67.01;100029.78;5005299;28;102689;-50
2022/02/07 08:51:20;;;;;;;;;;;;;;;9.33;67.13;100036.28;5002860;28;102335;-49
2022/02/07 08:53:48;;;;;;;;;;;;;;;9.33;66.99;100032.75;5009978;27;102600;-50
2022/02/07 08:56:16;;;;;;;;;;;;;;;9.34;66.64;100035.22;5000384;27;103878;-51
2022/02/07 08:58:45;;;;;;;;;;;;;;;9.33;66.61;100022.69;4993180;27;102258;-50
2022/02/07 09:01:19;;;;;;;;;;;;;;;9.34;67.27;100018.91;4998631;28;102905;-50
2022/02/07 09:11:09;;;;;;;;;;;;;;;9.35;66.53;99982.50;5006869;28;102685;-49
2022/02/07 09:13:39;;;;;;;;;;;;;;;9.34;66.95;99983.63;5000062;27;103814;-49
2022/02/07 09:16:51;;;;;;;;;;;;;;;9.35;66.67;99982.50;4999697;28;103577;-50
2022/02/07 09:18:53;;;;;;;;;;;;;;;9.35;67.00;99979.00;4994960;28;103340;-50
2022/02/07 09:21:18;;;;;;;;;;;;;;;9.36;67.00;99978.69;5002207;28;102161;-49
2022/02/07 09:23:45;;;;;;;;;;;;;;;9.35;67.34;99960.78;4999336;27;102132;-50
2022/02/07 09:26:12;;;;;;;;;;;;;;;9.36;67.21;99950.72;5002671;27;103818;-50
2022/02/07 09:28:38;;;;;;;;;;;;;;;9.36;66.80;99948.03;5003015;28;102129;-50
2022/02/07 09:31:04;;;;;;;;;;;;;;;9.35;66.84;99944.50;5000778;28;101960;-50
2022/02/07 09:33:30;;;;;;;;;;;;;;;9.35;66.84;99925.50;5003123;28;102620;-49
2022/02/07 09:35:58;;;;;;;;;;;;;;;9.36;67.01;99924.38;5006803;28;104097;-51
2022/02/07 09:38:24;;;;;;;;;;;;;;;9.36;66.67;99918.97;5002336;28;102503;-50
2022/02/07 09:40:52;;;;;;;;;;;;;;;9.36;66.60;99908.09;4998677;27;102302;-50
2022/02/07 09:43:19;;;;;;;;;;;;;;;9.36;66.42;99891.81;4999821;28;105451;-50
2022/02/07 09:45:48;;;;;;;;;;;;;;;9.36;66.80;99902.66;5005151;28;103929;-50
2022/02/07 09:48:16;;;;;;;;;;;;;;;9.38;66.88;99911.34;5007866;28;102476;-50
2022/02/07 09:50:43;;;;;;;;;;;;;;;9.37;66.90;99901.56;5003440;28;102470;-50
2022/02/07 09:53:11;;;;;;;;;;;;;;;9.37;66.17;99890.69;5006340;28;102246;-50
2022/02/07 09:55:37;;;;;;;;;;;;;;;9.39;66.42;99899.38;5006355;27;103894;-50
2022/02/07 09:58:03;;;;;;;;;;;;;;;9.39;66.51;99899.38;5002879;28;103018;-50
2022/02/07 10:00:35;;;;;;;;;;;;;;;9.39;66.11;99899.38;5005181;28;102485;-48
2022/02/07 10:03:13;;;;;;;;;;;;;;;9.40;66.62;99892.03;4997921;28;102457;-50
2022/02/07 10:06:09;;;;;;;;;;;;;;;9.39;66.58;99883.09;5000681;28;104072;-50
2022/02/07 10:08:47;;;;;;;;;;;;;;;9.41;66.84;99882.00;4998477;28;102563;-49
2022/02/07 10:14:05;;;;;;;;;;;;;;;9.43;66.68;99874.38;5009642;27;102570;-50
2022/02/07 10:35:21;;;;;;;;;;;;;;;9.44;66.80;99855.06;5003611;28;102830;-49
2022/02/07 10:38:09;;;;;;;;;;;;;;;9.45;65.97;99848.56;5003379;27;103784;-50
2022/02/07 10:41:06;;;;;;;;;;;;;;;9.45;66.55;99850.44;5011602;27;102587;-49
2022/02/07 10:43:34;;;;;;;;;;;;;;;9.45;66.82;99840.41;5005968;27;102752;-49
2022/02/07 10:46:06;;;;;;;;;;;;;;;9.46;66.57;99841.22;5006776;28;102416;-49
2022/02/07 10:48:37;;;;;;;;;;;;;;;9.46;66.10;99830.38;5000967;28;103918;-50
2022/02/07 10:51:13;;;;;;;;;;;;;;;9.47;66.17;99827.34;5006549;28;102203;-50
2022/02/07 10:53:41;;;;;;;;;;;;;;;9.46;66.39;99817.59;5005853;27;102488;-50
2022/02/07 10:56:09;;;;;;;;;;;;;;;9.48;66.23;99811.84;5011118;27;102804;-50
2022/02/07 10:58:36;;;;;;;;;;;;;;;9.48;66.06;99806.44;5001162;28;104004;-50
2022/02/07 11:01:17;;;;;;;;;;;;;;;9.48;66.20;99801.00;4999697;27;102855;-50
2022/02/07 11:04:10;;;;;;;;;;;;;;;9.48;66.00;99790.13;4998970;28;102623;-50
2022/02/07 11:06:35;;;;;;;;;;;;;;;9.49;66.66;99786.34;5009622;27;102033;-50
2022/02/07 11:11:45;;;;;;;;;;;;;;;9.50;66.10;99782.53;5004561;27;104540;-50
2022/02/07 11:16:57;;;;;;;;;;;;;;;9.49;66.73;99775.47;5007364;28;102320;-50
2022/02/07 11:19:40;;;;;;;;;;;;;;;9.49;65.99;99775.47;5002334;28;103876;-50
2022/02/07 11:24:59;;;;;;;;;;;;;;;9.49;66.58;99770.03;4998350;27;102284;-50
2022/02/07 11:27:39;;;;;;;;;;;;;;;9.49;66.30;99770.03;4995520;28;102550;-49
2022/02/07 11:30:09;;;;;;;;;;;;;;;9.50;66.16;99766.22;5001277;27;103880;-49
2022/02/07 11:32:52;;;;;;;;;;;;;;;9.49;66.18;99761.91;4995046;28;102639;-49
2022/02/07 11:35:19;;;;;;;;;;;;;;;9.50;66.12;99771.66;5004036;27;102629;-49
2022/02/07 11:37:49;;;;;;;;;;;;;;;9.49;65.91;99773.56;5001412;28;102601;-49
2022/02/07 11:40:26;;;;;;;;;;;;;;;9.51;65.72;99767.84;5003248;27;104012;-50
2022/02/07 11:43:09;;;;;;;;;;;;;;;9.50;66.40;99755.34;5010166;28;102718;-49
2022/02/07 11:45:55;;;;;;;;;;;;;;;9.51;66.22;99756.97;4999398;28;102996;-49
2022/02/07 11:48:32;;;;;;;;;;;;;;;9.51;65.95;99771.34;5009377;27;102561;-49
2022/02/07 11:51:01;;;;;;;;;;;;;;;9.51;65.85;99773.28;5007342;27;103923;-50
2022/02/07 11:53:30;;;;;;;;;;;;;;;9.52;65.75;99769.44;5005245;27;102801;-50
2022/02/07 11:56:06;;;;;;;;;;;;;;;9.51;65.76;99765.13;5008055;28;102093;-50
2022/02/07 11:58:45;;;;;;;;;;;;;;;9.51;66.16;99751.53;5002317;28;102185;-50
2022/02/07 12:01:12;;;;;;;;;;;;;;;9.51;66.34;99746.09;5001754;28;104063;-50
2022/02/07 12:03:40;;;;;;;;;;;;;;;9.51;65.97;99741.47;5002639;27;102315;-49
2022/02/07 12:06:07;;;;;;;;;;;;;;;9.52;66.55;99742.28;4998346;28;102234;-50
2022/02/07 12:08:37;;;;;;;;;;;;;;;9.51;66.59;99736.06;5006829;27;102386;-50
2022/02/07 12:11:07;;;;;;;;;;;;;;;9.52;66.10;99745.00;5005686;27;104693;-49
2022/02/07 12:13:34;;;;;;;;;;;;;;;9.51;66.76;99736.06;5001989;27;102548;-49
2022/02/07 12:16:09;;;;;;;;;;;;;;;9.51;66.04;99741.47;5007066;28;102531;-50
2022/02/07 12:18:35;;;;;;;;;;;;;;;9.52;66.10;99731.41;5008995;28;102550;-50
2022/02/07 12:21:15;;;;;;;;;;;;;;;9.52;66.50;99731.41;5008559;28;103862;-49
2022/02/07 12:23:41;;;;;;;;;;;;;;;9.51;65.69;99718.94;5007338;27;102631;-50
2022/02/07 12:26:10;;;;;;;;;;;;;;;9.51;66.28;99703.47;5007756;28;102507;-49
2022/02/07 12:33:44;;;;;;;;;;;;;;;9.52;66.28;99712.41;5009015;28;102497;-49
2022/02/07 12:36:11;;;;;;;;;;;;;;;9.52;65.78;99698.81;5006068;28;102078;-50
2022/02/07 12:38:38;;;;;;;;;;;;;;;9.52;66.41;99709.69;5007883;28;102823;-50
2022/02/07 12:41:06;;;;;;;;;;;;;;;9.52;65.73;99709.69;5001458;28;103984;-49
2022/02/07 12:43:32;;;;;;;;;;;;;;;9.51;66.45;99698.03;5007549;27;103500;-50
2022/02/07 12:45:58;;;;;;;;;;;;;;;9.53;66.46;99714.06;5006333;28;102464;-50
2022/02/07 12:48:28;;;;;;;;;;;;;;;9.53;66.47;99716.75;5009912;28;102527;-50
2022/02/07 12:50:56;;;;;;;;;;;;;;;9.52;66.19;99715.97;5001430;28;103677;-50
2022/02/07 12:53:23;;;;;;;;;;;;;;;9.53;65.84;99700.47;5004561;28;102151;-51
2022/02/07 12:55:55;;;;;;;;;;;;;;;9.53;66.29;99708.63;5006710;27;102498;-50
2022/02/07 12:58:22;;;;;;;;;;;;;;;9.53;66.27;99711.34;5007658;27;102774;-50
2022/02/07 13:00:48;;;;;;;;;;;;;;;9.53;65.71;99711.34;5007910;27;103711;-50
2022/02/07 13:03:14;;;;;;;;;;;;;;;9.53;66.40;99709.41;5005830;28;102520;-51
2022/02/07 13:05:43;;;;;;;;;;;;;;;9.52;65.91;99696.13;5005473;28;102182;-49
2022/02/07 13:08:11;;;;;;;;;;;;;;;9.53;65.70;99700.47;5007534;28;102554;-50
2022/02/07 13:10:38;;;;;;;;;;;;;;;9.52;66.47;99694.22;5002565;27;103875;-50
2022/02/07 13:13:20;;;;;;;;;;;;;;;9.53;66.13;99701.28;5005049;27;102225;-49
2022/02/07 13:15:47;;;;;;;;;;;;;;;9.53;66.43;99695.84;4994871;27;102572;-50
2022/02/07 13:18:17;;;;;;;;;;;;;;;9.54;66.39;99697.44;5006793;27;102206;-50
2022/02/07 13:20:43;;;;;;;;;;;;;;;9.54;66.22;99693.94;5006313;28;104085;-51
2022/02/07 13:23:15;;;;;;;;;;;;;;;9.52;66.63;99694.22;4999383;28;102797;-50
2022/02/07 13:25:42;;;;;;;;;;;;;;;9.54;65.93;99696.66;5004880;27;102705;-50
2022/02/07 13:28:12;;;;;;;;;;;;;;;9.53;66.37;99705.91;5002104;28;102874;-49
2022/02/07 13:30:40;;;;;;;;;;;;;;;9.53;66.73;99695.03;5000869;28;103775;-50
2022/02/07 13:33:06;;;;;;;;;;;;;;;9.55;66.44;99706.41;5001325;28;102475;-50
2022/02/07 13:35:35;;;;;;;;;;;;;;;9.52;65.89;99698.81;5001893;27;102138;-49
2022/02/07 13:38:04;;;;;;;;;;;;;;;9.53;66.42;99701.28;5003296;27;102737;-50
2022/02/07 13:40:38;;;;;;;;;;;;;;;9.53;65.89;99700.47;5001198;28;103696;-49
2022/02/07 13:43:04;;;;;;;;;;;;;;;9.54;66.05;99702.06;5003660;28;103666;-50
2022/02/07 13:45:31;;;;;;;;;;;;;;;9.54;66.13;99702.06;4990502;28;102488;-50
2022/02/07 13:47:58;;;;;;;;;;;;;;;9.55;66.20;99703.69;5008964;27;102268;-50
2022/02/07 13:50:25;;;;;;;;;;;;;;;9.54;66.20;99702.06;5010843;28;103845;-50
2022/02/07 13:52:52;;;;;;;;;;;;;;;9.54;66.49;99697.44;5012013;27;102746;-49
2022/02/07 13:55:19;;;;;;;;;;;;;;;9.54;66.56;99696.66;5004379;27;103590;-50
2022/02/07 13:57:52;;;;;;;;;;;;;;;9.55;66.53;99703.69;5003012;28;103641;-50
2022/02/07 14:00:20;;;;;;;;;;;;;;;9.55;66.14;99699.06;5007011;28;103957;-50
2022/02/07 14:02:46;;;;;;;;;;;;;;;9.54;66.46;99688.50;5006848;27;102397;-50
2022/02/07 14:05:13;;;;;;;;;;;;;;;9.55;66.74;99687.38;5005502;27;104292;-50
2022/02/07 14:07:49;;;;;;;;;;;;;;;9.54;65.81;99686.59;5002627;27;102951;-50
2022/02/07 14:10:16;;;;;;;;;;;;;;;9.54;66.79;99681.16;5012724;28;104004;-50
2022/02/07 14:12:43;;;;;;;;;;;;;;;9.54;66.38;99685.78;4994277;28;102507;-50
2022/02/07 14:15:11;;;;;;;;;;;;;;;9.55;65.88;99679.25;5000752;28;102297;-50
2022/02/07 14:17:43;;;;;;;;;;;;;;;9.55;66.49;99681.97;5005430;27;103173;-50
2022/02/07 14:20:11;;;;;;;;;;;;;;;9.53;66.20;99679.53;5004517;28;103691;-49
2022/02/07 14:22:37;;;;;;;;;;;;;;;9.55;66.45;99684.69;5007758;27;102230;-50
2022/02/07 14:25:05;;;;;;;;;;;;;;;9.55;66.35;99687.38;5002047;27;102396;-50
2022/02/07 14:27:32;;;;;;;;;;;;;;;9.54;66.57;99688.50;5000690;28;102939;-50
2022/02/07 14:29:58;;;;;;;;;;;;;;;9.55;66.67;99681.97;4998047;28;104149;-50
2022/02/07 14:32:25;;;;;;;;;;;;;;;9.55;66.61;99685.47;5002037;27;102466;-49
2022/02/07 14:34:51;;;;;;;;;;;;;;;9.53;66.76;99678.75;5004186;27;102751;-50
2022/02/07 14:37:18;;;;;;;;;;;;;;;9.54;65.91;99683.06;5005114;28;103226;-49
2022/02/07 14:39:45;;;;;;;;;;;;;;;9.54;66.74;99677.63;4995258;28;103880;-50
2022/02/07 14:42:11;;;;;;;;;;;;;;;9.54;66.42;99680.34;5011487;27;102858;-50
2022/02/07 14:44:56;;;;;;;;;;;;;;;9.53;66.26;99674.13;5008513;27;102597;-50
2022/02/07 14:47:38;;;;;;;;;;;;;;;9.54;66.42;99674.91;5001292;28;102764;-50
2022/02/07 14:50:07;;;;;;;;;;;;;;;9.55;65.86;99676.53;4999111;27;108015;-49
2022/02/07 14:52:34;;;;;;;;;;;;;;;9.54;66.88;99680.34;5006818;27;104833;-50
2022/02/07 14:55:00;;;;;;;;;;;;;;;9.53;66.37;99673.31;5002852;28;101963;-49
2022/02/07 14:57:27;;;;;;;;;;;;;;;9.52;66.39;99677.09;5003992;28;102326;-52
2022/02/07 14:59:53;;;;;;;;;;;;;;;9.53;66.61;99684.16;5010062;27;104093;-49
2022/02/07 15:02:21;;;;;;;;;;;;;;;9.53;66.60;99700.47;5000617;28;103392;-51
2022/02/07 15:04:48;;;;;;;;;;;;;;;9.52;66.63;99687.97;5010184;28;102542;-50
2022/02/07 15:07:15;;;;;;;;;;;;;;;9.52;66.48;99694.22;5007576;27;102423;-49
2022/02/07 15:09:41;;;;;;;;;;;;;;;9.54;66.35;99699.38;5003591;27;103847;-50
2022/02/07 15:12:08;;;;;;;;;;;;;;;9.54;66.89;99691.22;5006222;27;102482;-50
2022/02/07 15:14:35;;;;;;;;;;;;;;;9.52;66.63;99694.22;5002658;28;102120;-50
2022/02/07 15:17:02;;;;;;;;;;;;;;;9.52;66.85;99693.41;5009847;28;102605;-50
2022/02/07 15:19:28;;;;;;;;;;;;;;;9.53;66.96;99689.59;5008239;28;104306;-50
2022/02/07 15:21:54;;;;;;;;;;;;;;;9.52;66.86;99690.69;5003988;28;102294;-50